Ceuta, España

11:02 PM CEST en Septiembre 01, 2014 (GMT +0200)
Gibraltar Air Base | Change Station
CLOSE
Current Station
Aeropuerto
Location: Gibraltar,
Altura: 16 ft
Estaciones meteorológicas cercanas

Alt 16 ft 36.15 °N, 5.35 °W | Updated 12 minutes ago

Haze
Bruma
72 ° F
Sensación térmica 72 ° F
N
6
Viento Variable Viento desde ENE

Hoy
Alta -- | Baja -- ° F
--% Posibilidad de precipitaciones
Ayer
Alta -- | Baja -- ° F
Precip. -- pul
7:52 AM 8:49 PM
Creciente, 44% visible
Presión 29.95 pul
Visibilidad 4.3 Millas
Nubes Muy nublado 500 ft
Punto de rocío 70 ° F
Humedad 94%
Precipitaciones 0.00 pul
Espesor de la nieve No disponible.
UV 0 de una escala de 12
Polen No disponible.
Calidad del aire No disponible.
Flu Activity No disponible.
METAR LXGB 012050Z 06005KT 7000 HZ BKN005 22/21 Q1014

More Conditions Fewer Conditions

Presión 29.95 pul
Visibilidad 4.3 Millas
Nubes Muy nublado 500 ft
Punto de rocío 70 ° F
Humedad 94%
Precipitaciones 0.00 pul
Espesor de la nieve No disponible.
UV 0 de una escala de 12
Polen No disponible.
Calidad del aire No disponible.
Flu Activity No disponible.
METAR LXGB 012050Z 06005KT 7000 HZ BKN005 22/21 Q1014

More Conditions Fewer Conditions

10-Day Weather Forecast

Almanac

Astronomía

Sep. 01, 2014 Salida Puesta
Hora real 7:52 AM CEST 8:49 PM CEST
Crepúsculo civil 7:26 AM CEST 9:15 PM CEST
Crepúsculo náutico 6:55 AM CEST 9:46 PM CEST
Crepúsculo astronómico 6:23 AM CEST 10:18 PM CEST
Luna 2:12 PM CEST 12:07 AM CEST
Horas de luz 13h 48m
Horas de luz
12h 56m
Tomorrow will be 2m 11s shorter.
Creciente, 44% of the Moon is Illuminated
Hoy
Creciente
Sep 2
Cuarto creciente
Sep 8
Luna llena
Sep 15
Cuarto menguante
Sep 24
Nueva

Extremos de hoy

Máximos del país Bajas del país

Community

WunderPhotos

Upload Photos

1,749,407 ¡fotos cargadas!

WunderBlogs® & News

Nearby

Calidad del aire

Not available.

Grosos de nieve

Not available.

Actividad de terremotos

Ciudad Distance Mag. Tiempo y dato
No hay informes recientes de la actividad sísmica.
Magnitud mínima muestra es 2,5.

Temperaturas de aguas costeras

Lugar Temperatura
Sin partes meteorológicos de las estaciones

Estaciones meteorológicas cercanas